Time;durP1;ratioP1;P1;durP2;ratioP2;P2;SDS_P1;SDS_P2;PMS_P1;PMS_P2;Temp;Humidity;BMP_temperature;BMP_pressure;BME280_temperature;BME280_humidity;BME280_pressure;Samples;Min_cycle;Max_cycle;Signal;HPM_P1;HPM_P2
2021/06/10 00:01:36;;;;;;;1.70;1.35;;;24.20;49.30;;;;;;4956545;28;20407;-82
2021/06/10 00:04:02;;;;;;;1.90;1.48;;;24.20;49.30;;;;;;4936853;29;20542;-82
2021/06/10 00:06:27;;;;;;;1.52;1.10;;;24.20;49.50;;;;;;4974821;28;20019;-81
2021/06/10 00:08:53;;;;;;;1.20;1.00;;;24.10;49.50;;;;;;4968048;28;20109;-81
2021/06/10 00:11:19;;;;;;;1.20;1.10;;;24.00;49.50;;;;;;4940149;28;20031;-81
2021/06/10 00:13:45;;;;;;;1.55;1.23;;;24.00;49.50;;;;;;4955141;28;20039;-82
2021/06/10 00:16:11;;;;;;;1.48;1.20;;;24.00;49.60;;;;;;4955965;28;20026;-82
2021/06/10 00:18:36;;;;;;;1.38;1.10;;;23.90;49.60;;;;;;4952099;28;20035;-83
2021/06/10 00:21:03;;;;;;;1.67;1.30;;;23.90;49.70;;;;;;4988381;28;20027;-82
2021/06/10 00:23:29;;;;;;;1.92;1.33;;;23.90;49.80;;;;;;4972311;28;20054;-82
2021/06/10 00:25:55;;;;;;;1.75;1.30;;;23.90;49.80;;;;;;4968312;28;20031;-82
2021/06/10 00:28:21;;;;;;;1.30;1.13;;;23.80;49.90;;;;;;4955672;28;20023;-82
2021/06/10 00:30:47;;;;;;;1.35;1.20;;;23.80;49.90;;;;;;4956297;28;20090;-82
2021/06/10 00:33:13;;;;;;;1.40;1.30;;;23.70;49.90;;;;;;4970039;28;20456;-82
2021/06/10 00:35:38;;;;;;;1.30;1.10;;;23.70;50.10;;;;;;4941197;28;20126;-82
2021/06/10 00:38:05;;;;;;;1.50;1.23;;;23.70;50.10;;;;;;4972954;28;20535;-82
2021/06/10 00:40:33;;;;;;;1.25;1.15;;;23.60;50.10;;;;;;4958448;28;20031;-82
2021/06/10 00:42:59;;;;;;;1.83;1.30;;;23.50;50.20;;;;;;4956639;28;20141;-83
2021/06/10 00:45:26;;;;;;;1.20;1.10;;;23.50;50.20;;;;;;4981550;28;20065;-82
2021/06/10 00:47:53;;;;;;;1.45;1.20;;;23.40;50.30;;;;;;4956368;28;20031;-82
2021/06/10 00:50:22;;;;;;;1.45;1.33;;;23.40;50.30;;;;;;4972077;28;20055;-82
2021/06/10 00:52:48;;;;;;;1.52;1.30;;;23.40;50.40;;;;;;4961605;28;20039;-81
2021/06/10 00:55:14;;;;;;;1.42;1.10;;;23.30;50.40;;;;;;4956928;28;20027;-81
2021/06/10 00:57:41;;;;;;;1.52;1.13;;;23.30;50.50;;;;;;4988173;28;20031;-82
2021/06/10 01:00:11;;;;;;;1.52;1.40;;;23.30;50.50;;;;;;4956380;28;20431;-82
2021/06/10 01:02:37;;;;;;;1.45;1.30;;;23.20;50.50;;;;;;4970275;28;20423;-82
2021/06/10 01:05:08;;;;;;;1.27;1.17;;;23.20;50.60;;;;;;4965143;28;20515;-82
2021/06/10 01:07:58;;;;;;;1.90;1.13;;;23.20;50.70;;;;;;4985961;28;20121;-82
2021/06/10 01:10:59;;;;;;;1.85;1.30;;;23.10;50.70;;;;;;4958418;28;20038;-82
2021/06/10 01:13:36;;;;;;;1.58;1.20;;;23.10;51.50;;;;;;4962915;28;20090;-82
2021/06/10 01:16:04;;;;;;;1.48;1.20;;;23.00;50.80;;;;;;4983221;28;20121;-82
2021/06/10 01:18:31;;;;;;;1.92;1.30;;;23.00;50.80;;;;;;4972087;28;20019;-82
2021/06/10 01:20:58;;;;;;;2.25;1.10;;;23.00;50.80;;;;;;4986422;28;20035;-82
2021/06/10 01:23:36;;;;;;;1.55;1.30;;;22.90;50.80;;;;;;4955724;28;20518;-82
2021/06/10 01:26:08;;;;;;;1.52;1.38;;;22.80;50.90;;;;;;4974618;28;20435;-80
2021/06/10 01:28:39;;;;;;;3.33;1.45;;;22.80;50.90;;;;;;4975621;28;20037;-82
2021/06/10 01:31:08;;;;;;;1.88;1.35;;;22.80;51.00;;;;;;4958321;28;20122;-82
2021/06/10 01:33:49;;;;;;;2.25;1.35;;;22.70;50.90;;;;;;4942084;29;20035;-81
2021/06/10 01:36:21;;;;;;;1.60;1.25;;;22.70;51.10;;;;;;4956965;28;20059;-82
2021/06/10 01:38:50;;;;;;;1.40;1.30;;;22.70;51.00;;;;;;4975246;28;20109;-82
2021/06/10 01:41:18;;;;;;;2.17;1.50;;;22.60;51.10;;;;;;4959568;28;20086;-81
2021/06/10 01:43:45;;;;;;;1.77;1.40;;;22.60;51.10;;;;;;4974970;28;20162;-82
2021/06/10 01:46:13;;;;;;;1.17;1.13;;;22.60;51.20;;;;;;4975182;28;20027;-81
2021/06/10 01:48:46;;;;;;;1.65;1.17;;;22.50;51.20;;;;;;4939965;28;20047;-81
2021/06/10 01:51:15;;;;;;;1.83;1.27;;;22.50;51.30;;;;;;4949680;28;20039;-81
2021/06/10 01:53:43;;;;;;;1.33;1.13;;;22.50;51.30;;;;;;4942856;28;20490;-81
2021/06/10 01:56:10;;;;;;;1.50;1.35;;;22.40;51.30;;;;;;4959372;28;20035;-80
2021/06/10 01:58:37;;;;;;;1.50;1.40;;;22.40;51.30;;;;;;4970852;28;20035;-81
2021/06/10 02:01:05;;;;;;;2.30;1.42;;;22.30;51.30;;;;;;4973779;28;20035;-81
2021/06/10 02:03:32;;;;;;;1.73;1.35;;;22.30;51.40;;;;;;4982555;28;20097;-80
2021/06/10 02:06:00;;;;;;;1.92;1.20;;;22.20;51.30;;;;;;4954908;28;20034;-80
2021/06/10 02:08:27;;;;;;;1.33;1.23;;;22.20;51.50;;;;;;4958681;28;20026;-81
2021/06/10 02:10:55;;;;;;;1.58;1.20;;;22.20;51.50;;;;;;4977491;28;20460;-80
2021/06/10 02:13:24;;;;;;;1.20;1.10;;;22.20;51.50;;;;;;4990756;28;20126;-81
2021/06/10 02:15:52;;;;;;;1.90;1.50;;;22.10;51.50;;;;;;4984958;28;20027;-80
2021/06/10 02:18:18;;;;;;;1.60;1.40;;;22.10;51.60;;;;;;4942416;28;20026;-82
2021/06/10 02:20:44;;;;;;;2.50;1.40;;;22.10;51.60;;;;;;4959594;28;20027;-80
2021/06/10 02:23:10;;;;;;;1.60;1.50;;;22.00;51.60;;;;;;4958677;28;20085;-80
2021/06/10 02:25:36;;;;;;;1.70;1.33;;;22.00;51.70;;;;;;4939215;29;20163;-81
2021/06/10 02:28:04;;;;;;;1.73;1.30;;;22.00;51.80;;;;;;4970112;28;20034;-81
2021/06/10 02:30:31;;;;;;;1.50;1.40;;;21.90;51.80;;;;;;4981317;28;20026;-81
2021/06/10 02:32:57;;;;;;;1.65;1.40;;;21.90;51.80;;;;;;4973012;28;20121;-81
2021/06/10 02:35:23;;;;;;;1.50;1.40;;;21.90;51.90;;;;;;4974664;28;20057;-81
2021/06/10 02:37:51;;;;;;;1.90;1.40;;;21.80;51.90;;;;;;4957455;28;20117;-80
2021/06/10 02:40:41;;;;;;;2.70;1.40;;;21.80;52.00;;;;;;4968434;28;20042;-82
2021/06/10 02:43:07;;;;;;;1.58;1.30;;;21.70;52.20;;;;;;4989984;28;20062;-81
2021/06/10 02:45:34;;;;;;;1.52;1.25;;;21.70;52.10;;;;;;4989691;28;20030;-81
2021/06/10 02:48:01;;;;;;;1.52;1.42;;;21.70;52.10;;;;;;4974272;28;20035;-80
2021/06/10 02:50:29;;;;;;;1.55;1.27;;;21.70;52.90;;;;;;4942051;28;20496;-81
2021/06/10 02:52:58;;;;;;;2.10;1.58;;;21.60;52.20;;;;;;4927602;29;20519;-81
2021/06/10 02:55:26;;;;;;;2.08;1.60;;;21.60;52.40;;;;;;4960724;28;20023;-81
2021/06/10 02:57:54;;;;;;;2.28;1.70;;;21.50;52.30;;;;;;4970118;28;20027;-81
2021/06/10 03:00:23;;;;;;;1.98;1.58;;;21.50;52.40;;;;;;4981118;28;20027;-81
2021/06/10 03:02:49;;;;;;;2.67;1.75;;;21.50;52.50;;;;;;4970518;28;20388;-81
2021/06/10 03:05:16;;;;;;;2.42;1.73;;;21.40;52.50;;;;;;4947934;28;20033;-81
2021/06/10 03:07:44;;;;;;;1.65;1.40;;;21.40;52.60;;;;;;4954238;28;20031;-80
2021/06/10 03:10:11;;;;;;;1.77;1.48;;;21.40;52.70;;;;;;4975646;28;20046;-81
2021/06/10 03:12:39;;;;;;;1.42;1.33;;;21.30;52.60;;;;;;4937911;28;20035;-81
2021/06/10 03:15:10;;;;;;;1.95;1.67;;;21.30;52.70;;;;;;4973633;28;20011;-81
2021/06/10 03:17:38;;;;;;;2.50;1.70;;;21.30;52.80;;;;;;4937931;29;20031;-82
2021/06/10 03:20:08;;;;;;;1.92;1.52;;;21.20;52.80;;;;;;4973289;28;20066;-81
2021/06/10 03:22:35;;;;;;;2.35;1.70;;;21.20;52.80;;;;;;4973227;28;20081;-83
2021/06/10 03:25:03;;;;;;;1.70;1.50;;;21.20;52.80;;;;;;4958205;28;20118;-81
2021/06/10 03:27:31;;;;;;;2.97;1.77;;;21.10;52.90;;;;;;4973082;28;20061;-81
2021/06/10 03:29:57;;;;;;;2.22;1.60;;;21.10;53.00;;;;;;4964852;28;20034;-81
2021/06/10 03:32:25;;;;;;;2.58;1.67;;;21.10;53.00;;;;;;4956233;28;20042;-82
2021/06/10 03:34:51;;;;;;;1.75;1.50;;;21.10;53.10;;;;;;4984513;28;20022;-81
2021/06/10 03:37:18;;;;;;;1.92;1.52;;;21.00;53.10;;;;;;4978739;28;20026;-82
2021/06/10 03:39:45;;;;;;;2.08;1.70;;;21.00;53.20;;;;;;4972573;28;20057;-81
2021/06/10 03:42:12;;;;;;;2.55;1.73;;;21.00;53.20;;;;;;4956381;28;20038;-82
2021/06/10 03:44:38;;;;;;;2.17;1.63;;;20.90;53.20;;;;;;4956967;28;20031;-81
2021/06/10 03:47:05;;;;;;;2.75;1.77;;;20.90;53.20;;;;;;4954667;28;20043;-82
2021/06/10 03:49:32;;;;;;;2.30;1.73;;;20.90;53.20;;;;;;4939743;28;20066;-83
2021/06/10 03:51:58;;;;;;;2.10;1.70;;;20.80;53.20;;;;;;4965073;28;20413;-83
2021/06/10 03:54:24;;;;;;;2.33;1.52;;;20.80;53.30;;;;;;4947469;28;20061;-82
2021/06/10 03:56:50;;;;;;;2.78;1.90;;;20.80;53.30;;;;;;4972835;28;20101;-82
2021/06/10 03:59:16;;;;;;;1.60;1.40;;;20.80;53.40;;;;;;4989276;28;20038;-82
2021/06/10 04:01:42;;;;;;;2.03;1.55;;;20.70;53.30;;;;;;4956573;28;20435;-82
2021/06/10 04:04:08;;;;;;;1.48;1.38;;;20.70;53.40;;;;;;4963979;28;20051;-83
2021/06/10 04:06:35;;;;;;;2.33;1.48;;;20.70;53.50;;;;;;4985393;28;20035;-82
2021/06/10 04:09:04;;;;;;;2.30;1.60;;;20.70;53.50;;;;;;4955513;28;20027;-82
2021/06/10 04:11:29;;;;;;;1.73;1.40;;;20.60;53.50;;;;;;4973102;28;20031;-83
2021/06/10 04:13:55;;;;;;;2.15;1.73;;;20.60;53.50;;;;;;4989018;28;20039;-82
2021/06/10 04:16:23;;;;;;;2.45;1.85;;;20.60;53.50;;;;;;4969899;28;20383;-82
2021/06/10 04:18:48;;;;;;;1.60;1.50;;;20.50;53.50;;;;;;4956665;28;20031;-81
2021/06/10 04:21:14;;;;;;;2.38;1.50;;;20.50;53.50;;;;;;4940377;28;20195;-81
2021/06/10 04:23:40;;;;;;;1.58;1.42;;;20.50;53.60;;;;;;4951107;28;20126;-85
2021/06/10 04:26:06;;;;;;;2.10;1.73;;;20.50;53.60;;;;;;4989393;28;20038;-88
2021/06/10 04:28:32;;;;;;;1.70;1.42;;;20.50;53.70;;;;;;4972082;28;20031;-84
2021/06/10 04:30:59;;;;;;;1.85;1.58;;;20.50;53.70;;;;;;4964145;28;20392;-86
2021/06/10 04:33:25;;;;;;;1.80;1.45;;;20.40;53.70;;;;;;4960868;28;20039;-85
2021/06/10 04:35:51;;;;;;;1.65;1.55;;;20.40;53.80;;;;;;4957463;28;20035;-84
2021/06/10 04:38:17;;;;;;;2.83;1.83;;;20.40;53.80;;;;;;4957536;28;20110;-83
2021/06/10 04:40:43;;;;;;;2.20;1.70;;;20.40;53.90;;;;;;4946990;28;20035;-83
2021/06/10 04:43:09;;;;;;;1.50;1.40;;;20.40;53.90;;;;;;4989291;28;20733;-85
2021/06/10 04:45:35;;;;;;;1.98;1.50;;;20.40;53.90;;;;;;4972291;28;20503;-85
2021/06/10 04:48:00;;;;;;;1.80;1.55;;;20.40;54.00;;;;;;4957204;28;20019;-84
2021/06/10 04:50:28;;;;;;;2.28;1.60;;;20.30;54.00;;;;;;4973337;28;20202;-85
2021/06/10 04:52:55;;;;;;;2.28;1.58;;;20.30;54.70;;;;;;4972919;28;20038;-84
2021/06/10 04:55:21;;;;;;;1.90;1.70;;;20.30;54.10;;;;;;4972567;28;20407;-85
2021/06/10 04:57:48;;;;;;;1.70;1.60;;;20.30;54.20;;;;;;4947710;28;20059;-88
2021/06/10 05:00:14;;;;;;;2.08;1.77;;;20.30;54.20;;;;;;4953738;28;20146;-85
2021/06/10 05:02:40;;;;;;;2.30;1.90;;;20.20;54.20;;;;;;4960822;28;20043;-85
2021/06/10 05:05:06;;;;;;;1.90;1.70;;;20.30;54.30;;;;;;4966117;28;20023;-83
2021/06/10 05:07:33;;;;;;;2.05;1.70;;;20.20;54.20;;;;;;4948306;28;20057;-84
2021/06/10 05:09:59;;;;;;;1.98;1.75;;;20.20;54.30;;;;;;4969545;28;20035;-83
2021/06/10 05:12:25;;;;;;;2.33;1.73;;;20.20;54.30;;;;;;4975992;28;20122;-83
2021/06/10 05:14:51;;;;;;;2.63;1.60;;;20.20;54.30;;;;;;4972368;28;20023;-84
2021/06/10 05:17:18;;;;;;;3.03;2.10;;;20.20;54.40;;;;;;4960624;28;20054;-84
2021/06/10 05:19:43;;;;;;;2.17;1.80;;;20.20;54.40;;;;;;4976423;28;20030;-84
2021/06/10 05:22:09;;;;;;;1.95;1.70;;;20.10;54.30;;;;;;4955582;28;20074;-85
2021/06/10 05:24:35;;;;;;;2.65;1.95;;;20.20;54.40;;;;;;4992905;28;20019;-86
2021/06/10 05:27:01;;;;;;;3.03;1.98;;;20.20;54.50;;;;;;4976457;28;20027;-85
2021/06/10 05:29:27;;;;;;;2.92;2.22;;;20.20;54.50;;;;;;4975307;28;20491;-85
2021/06/10 05:31:54;;;;;;;2.15;1.92;;;20.10;54.40;;;;;;4972207;28;20030;-85
2021/06/10 05:34:19;;;;;;;2.53;2.00;;;20.20;54.50;;;;;;4976951;28;20105;-85
2021/06/10 05:36:46;;;;;;;2.17;1.90;;;20.20;54.50;;;;;;4976775;28;20058;-84
2021/06/10 05:39:11;;;;;;;3.47;2.42;;;20.10;54.50;;;;;;4973473;28;20019;-85
2021/06/10 05:41:37;;;;;;;2.03;1.70;;;20.10;54.50;;;;;;4975782;28;20520;-85
2021/06/10 05:44:03;;;;;;;3.05;2.17;;;20.10;54.50;;;;;;4959825;28;20035;-84
2021/06/10 05:46:29;;;;;;;2.92;2.30;;;20.10;54.50;;;;;;4944370;28;20097;-85
2021/06/10 05:48:55;;;;;;;2.20;2.00;;;20.10;54.50;;;;;;4973493;28;20062;-83
2021/06/10 05:51:21;;;;;;;2.55;1.98;;;20.20;54.60;;;;;;4954518;28;20472;-84
2021/06/10 05:53:47;;;;;;;2.33;2.10;;;20.10;54.60;;;;;;4974285;28;20110;-84
2021/06/10 05:56:12;;;;;;;3.03;2.33;;;20.10;54.50;;;;;;4979724;28;20387;-82
2021/06/10 05:58:38;;;;;;;2.65;2.13;;;20.10;54.60;;;;;;4959836;28;20483;-85
2021/06/10 06:01:04;;;;;;;2.53;2.00;;;20.20;54.60;;;;;;4944119;28;20130;-86
2021/06/10 06:03:31;;;;;;;2.60;2.08;;;20.20;54.60;;;;;;4981485;28;20043;-85
2021/06/10 06:05:58;;;;;;;3.95;2.65;;;20.20;54.60;;;;;;4957747;28;20030;-86
2021/06/10 06:08:24;;;;;;;3.15;2.40;;;20.20;54.60;;;;;;4965907;28;20027;-86
2021/06/10 06:10:52;;;;;;;3.05;2.22;;;20.20;54.60;;;;;;4977607;28;20019;-88
2021/06/10 06:13:22;;;;;;;2.67;2.15;;;20.20;54.60;;;;;;4975721;28;20142;-88
2021/06/10 06:15:50;;;;;;;2.88;2.30;;;20.20;54.60;;;;;;4960389;28;20026;-89
2021/06/10 06:18:17;;;;;;;3.03;2.38;;;20.20;54.60;;;;;;4980378;28;20030;-89
2021/06/10 06:20:43;;;;;;;2.97;2.30;;;20.20;54.60;;;;;;4966791;28;20090;-90
2021/06/10 06:23:09;;;;;;;3.53;2.58;;;20.20;54.60;;;;;;4974855;28;20093;-88
2021/06/10 06:25:35;;;;;;;2.78;2.20;;;20.30;54.70;;;;;;4939884;29;20121;-89
2021/06/10 06:28:01;;;;;;;3.50;2.50;;;20.30;54.70;;;;;;4969940;28;20030;-88
2021/06/10 06:30:27;;;;;;;3.13;2.45;;;20.30;54.70;;;;;;4959275;28;20035;-88
2021/06/10 06:32:52;;;;;;;3.45;2.50;;;20.30;54.70;;;;;;4943864;28;20118;-88
2021/06/10 06:35:18;;;;;;;2.85;2.20;;;20.30;54.70;;;;;;4959777;28;20054;-92
2021/06/10 06:37:44;;;;;;;3.40;2.33;;;20.30;54.70;;;;;;4949205;28;20086;-89
2021/06/10 06:40:10;;;;;;;3.20;2.22;;;20.30;54.70;;;;;;4983952;28;20034;-89
2021/06/10 06:42:37;;;;;;;3.65;2.63;;;20.30;54.70;;;;;;4979406;28;20038;-88
2021/06/10 06:45:05;;;;;;;2.90;2.33;;;20.40;54.90;;;;;;4961254;28;20027;-83
2021/06/10 06:47:30;;;;;;;3.53;2.60;;;20.40;54.90;;;;;;4942930;28;20038;-83
2021/06/10 06:49:56;;;;;;;3.47;2.58;;;20.40;54.90;;;;;;4950489;28;20078;-86
2021/06/10 06:52:22;;;;;;;2.97;2.40;;;20.40;55.00;;;;;;4959087;28;20488;-86
2021/06/10 06:54:48;;;;;;;3.45;2.30;;;20.50;55.10;;;;;;4975689;28;20042;-87
2021/06/10 06:57:14;;;;;;;4.10;2.63;;;20.50;55.00;;;;;;4973343;28;20199;-86
2021/06/10 06:59:39;;;;;;;4.97;2.80;;;20.40;55.00;;;;;;4932735;28;20038;-86
2021/06/10 07:02:05;;;;;;;3.47;2.70;;;20.50;55.00;;;;;;4942729;28;20118;-85
2021/06/10 07:04:31;;;;;;;3.63;2.80;;;20.50;55.10;;;;;;4962504;28;20460;-86
2021/06/10 07:06:57;;;;;;;3.55;2.78;;;20.50;55.10;;;;;;4940012;29;20035;-86
2021/06/10 07:09:23;;;;;;;3.60;2.83;;;20.50;55.00;;;;;;4966721;28;20035;-87
2021/06/10 07:11:48;;;;;;;3.55;2.67;;;20.60;55.10;;;;;;4955682;28;20042;-84
2021/06/10 07:14:14;;;;;;;3.47;2.47;;;20.60;55.00;;;;;;4986026;28;20067;-85
2021/06/10 07:16:42;;;;;;;2.80;2.10;;;20.60;54.90;;;;;;4948195;28;20027;-85
2021/06/10 07:19:08;;;;;;;4.15;2.80;;;20.60;54.90;;;;;;4964192;28;20122;-85
2021/06/10 07:21:41;;;;;;;3.65;2.50;;;20.60;54.80;;;;;;4942661;28;20065;-85
2021/06/10 07:24:07;;;;;;;3.88;2.70;;;20.70;54.90;;;;;;4973680;28;20430;-85
2021/06/10 07:26:33;;;;;;;3.13;2.30;;;20.70;54.80;;;;;;4960380;28;20042;-84
2021/06/10 07:28:59;;;;;;;2.80;2.38;;;20.80;54.80;;;;;;4974555;28;20034;-85
2021/06/10 07:31:25;;;;;;;3.67;2.58;;;20.80;54.70;;;;;;4952258;28;20023;-84
2021/06/10 07:33:50;;;;;;;3.67;2.78;;;20.90;54.70;;;;;;4969884;28;20031;-83
2021/06/10 07:36:17;;;;;;;2.80;2.25;;;20.90;54.60;;;;;;4940492;28;20034;-84
2021/06/10 07:38:42;;;;;;;3.55;2.67;;;21.00;54.60;;;;;;4959366;28;20022;-85
2021/06/10 07:41:08;;;;;;;2.95;2.17;;;21.00;54.50;;;;;;4957003;28;20041;-85
2021/06/10 07:43:34;;;;;;;2.95;2.30;;;21.10;54.50;;;;;;4973501;28;20042;-85
2021/06/10 07:46:01;;;;;;;2.60;2.00;;;21.20;54.50;;;;;;4925532;28;20034;-85
2021/06/10 07:48:29;;;;;;;2.83;2.08;;;21.20;54.40;;;;;;4925777;28;20126;-85
2021/06/10 07:50:56;;;;;;;3.58;2.50;;;21.30;54.30;;;;;;4973521;28;20042;-84
2021/06/10 07:53:22;;;;;;;3.50;2.47;;;21.30;54.20;;;;;;4957360;28;20039;-85
2021/06/10 07:55:54;;;;;;;2.72;2.10;;;21.40;54.10;;;;;;4959151;28;20498;-85
2021/06/10 07:58:20;;;;;;;2.65;2.03;;;21.40;54.00;;;;;;4989576;28;20030;-85
2021/06/10 08:00:46;;;;;;;2.95;1.98;;;21.60;54.00;;;;;;4971198;28;20465;-85
2021/06/10 08:03:12;;;;;;;2.38;2.00;;;21.60;53.90;;;;;;4946395;28;20551;-83
2021/06/10 08:05:38;;;;;;;2.13;1.80;;;21.70;53.80;;;;;;4941079;28;20062;-85
2021/06/10 08:08:04;;;;;;;3.10;2.13;;;21.80;53.80;;;;;;4944903;28;20376;-85
2021/06/10 08:10:30;;;;;;;2.65;1.90;;;21.90;53.70;;;;;;4973136;28;20019;-84
2021/06/10 08:12:56;;;;;;;2.50;2.00;;;21.90;53.50;;;;;;4970138;28;20031;-84
2021/06/10 08:15:22;;;;;;;2.72;1.60;;;22.00;53.50;;;;;;4956444;28;20372;-84
2021/06/10 08:17:48;;;;;;;2.00;1.63;;;22.10;53.40;;;;;;4959054;28;20085;-83
2021/06/10 08:20:16;;;;;;;2.70;1.90;;;22.20;53.40;;;;;;4988858;28;20035;-83
2021/06/10 08:22:42;;;;;;;2.08;1.73;;;22.30;53.30;;;;;;4974251;28;20065;-84
2021/06/10 08:25:09;;;;;;;1.83;1.55;;;22.30;53.20;;;;;;4977754;28;20057;-86
2021/06/10 08:27:36;;;;;;;2.70;1.77;;;22.40;53.20;;;;;;4958474;28;20035;-82
2021/06/10 08:30:04;;;;;;;1.80;1.60;;;22.50;53.20;;;;;;4968107;28;20034;-83
2021/06/10 08:32:30;;;;;;;2.17;1.70;;;22.50;53.00;;;;;;4948352;29;20110;-83
2021/06/10 08:34:56;;;;;;;2.28;1.65;;;22.70;53.00;;;;;;4977232;28;20469;-83
2021/06/10 08:37:22;;;;;;;2.35;1.70;;;22.80;53.00;;;;;;4947742;28;20033;-82
2021/06/10 08:39:47;;;;;;;2.38;1.73;;;22.80;53.00;;;;;;4957655;28;20538;-84
2021/06/10 08:42:15;;;;;;;2.50;1.90;;;22.90;52.90;;;;;;4955824;28;20035;-83
2021/06/10 08:44:43;;;;;;;2.58;1.80;;;23.00;52.90;;;;;;4946128;28;20484;-83
2021/06/10 08:47:10;;;;;;;2.25;1.70;;;23.10;52.90;;;;;;4985107;28;20031;-83
2021/06/10 08:49:37;;;;;;;2.08;1.83;;;23.20;52.90;;;;;;4988211;28;20051;-84
2021/06/10 08:52:06;;;;;;;2.08;1.70;;;23.30;52.90;;;;;;4967820;28;20473;-84
2021/06/10 08:54:32;;;;;;;1.75;1.50;;;23.40;52.90;;;;;;4980329;28;20031;-84
2021/06/10 08:56:59;;;;;;;2.67;2.03;;;23.50;52.90;;;;;;4945285;28;20472;-84
2021/06/10 08:59:25;;;;;;;2.15;1.77;;;23.60;52.90;;;;;;4959301;28;20480;-84
2021/06/10 09:01:51;;;;;;;2.00;1.70;;;23.70;52.90;;;;;;4956155;28;20081;-84
2021/06/10 09:04:17;;;;;;;2.00;1.73;;;23.80;52.90;;;;;;4955841;28;20039;-83
2021/06/10 09:06:52;;;;;;;2.00;1.80;;;23.80;52.90;;;;;;4956402;28;20046;-83
2021/06/10 09:09:21;;;;;;;2.65;1.60;;;24.00;53.10;;;;;;4972125;28;20114;-83
2021/06/10 09:11:48;;;;;;;2.72;1.70;;;24.00;52.90;;;;;;4970257;28;20030;-83
2021/06/10 09:14:14;;;;;;;2.17;1.67;;;24.20;52.90;;;;;;4987680;28;20372;-84
2021/06/10 09:16:43;;;;;;;1.85;1.67;;;24.20;52.80;;;;;;4956214;28;20038;-83
2021/06/10 09:19:19;;;;;;;2.22;1.70;;;24.40;52.80;;;;;;4958396;28;20059;-84
2021/06/10 09:21:57;;;;;;;2.08;1.60;;;24.40;52.70;;;;;;4961194;28;20406;-83
2021/06/10 09:24:31;;;;;;;2.30;1.77;;;24.60;52.70;;;;;;4990454;28;20488;-83
2021/06/10 09:27:00;;;;;;;2.10;1.63;;;24.60;52.60;;;;;;4945243;28;20042;-83
2021/06/10 09:29:41;;;;;;;1.65;1.48;;;24.70;52.60;;;;;;4982338;28;20034;-84
2021/06/10 09:32:15;;;;;;;2.22;1.60;;;24.80;52.60;;;;;;4974019;28;20508;-83
2021/06/10 09:34:55;;;;;;;1.60;1.50;;;25.00;52.60;;;;;;4972689;28;20027;-83
2021/06/10 09:37:33;;;;;;;1.67;1.58;;;25.00;52.40;;;;;;4959211;28;20026;-83
2021/06/10 09:40:01;;;;;;;2.50;1.70;;;25.10;52.40;;;;;;4969339;28;20467;-83
2021/06/10 09:42:30;;;;;;;2.30;1.50;;;25.30;52.40;;;;;;4971274;28;20035;-83
2021/06/10 09:44:59;;;;;;;1.73;1.50;;;25.30;52.30;;;;;;4971834;28;20034;-82
2021/06/10 09:47:32;;;;;;;1.88;1.65;;;25.40;52.30;;;;;;4969289;28;20031;-82
2021/06/10 09:50:33;;;;;;;1.80;1.58;;;25.60;52.40;;;;;;4976268;28;20166;-80
2021/06/10 09:53:04;;;;;;;4.32;2.25;;;25.60;52.40;;;;;;4947725;28;20047;-80
2021/06/10 09:55:52;;;;;;;3.65;2.67;;;25.80;52.00;;;;;;4954679;28;20038;-79
2021/06/10 09:58:23;;;;;;;3.85;2.53;;;25.90;51.60;;;;;;4990431;28;20038;-80
2021/06/10 10:00:50;;;;;;;4.55;3.38;;;26.00;51.20;;;;;;4974153;28;20095;-80
2021/06/10 10:03:22;;;;;;;4.40;3.10;;;26.10;50.90;;;;;;4973774;28;20463;-79
2021/06/10 10:05:49;;;;;;;4.90;3.50;;;26.20;50.60;;;;;;4975257;28;20035;-80
2021/06/10 10:08:15;;;;;;;4.55;3.53;;;26.30;50.50;;;;;;4982960;28;20094;-79
2021/06/10 10:10:42;;;;;;;5.43;3.63;;;26.30;50.20;;;;;;4968760;28;20460;-79
2021/06/10 10:13:12;;;;;;;4.07;3.17;;;26.40;50.10;;;;;;4973680;28;20067;-79
2021/06/10 10:15:38;;;;;;;4.95;3.28;;;26.50;49.80;;;;;;4983600;28;20058;-80
2021/06/10 10:18:05;;;;;;;4.95;3.75;;;26.60;49.40;;;;;;4989509;28;20038;-80
2021/06/10 10:20:32;;;;;;;4.40;3.28;;;26.70;49.20;;;;;;4938008;29;20098;-81
2021/06/10 10:22:58;;;;;;;6.07;3.53;;;26.70;49.00;;;;;;4986654;28;20035;-80
2021/06/10 10:25:24;;;;;;;3.80;2.67;;;26.80;48.90;;;;;;4957332;28;20046;-80
2021/06/10 10:27:50;;;;;;;3.90;2.88;;;26.90;48.80;;;;;;4973093;28;20057;-81
2021/06/10 10:30:20;;;;;;;4.07;2.90;;;26.90;48.50;;;;;;4975964;28;20043;-80
2021/06/10 10:32:46;;;;;;;4.55;3.40;;;27.00;48.30;;;;;;4958408;28;20057;-81
2021/06/10 10:35:21;;;;;;;3.85;3.17;;;27.00;48.00;;;;;;4973321;28;20387;-80
2021/06/10 10:37:51;;;;;;;4.32;3.08;;;27.10;47.90;;;;;;4972176;28;20387;-81
2021/06/10 10:40:28;;;;;;;3.55;2.72;;;27.20;47.70;;;;;;4970556;28;20110;-81
2021/06/10 10:43:14;;;;;;;4.18;2.83;;;27.20;47.60;;;;;;4941794;28;20487;-81
2021/06/10 10:45:44;;;;;;;4.82;3.15;;;27.30;47.70;;;;;;4974948;28;20117;-81
2021/06/10 10:48:14;;;;;;;3.50;2.38;;;27.40;47.40;;;;;;4957763;28;20023;-83
2021/06/10 10:50:43;;;;;;;3.03;2.13;;;27.50;47.10;;;;;;4944661;28;20043;-82
2021/06/10 10:53:25;;;;;;;4.07;2.30;;;27.50;46.90;;;;;;4947595;29;20118;-81
2021/06/10 10:56:10;;;;;;;2.53;2.03;;;27.60;46.90;;;;;;4948696;29;20488;-83
2021/06/10 10:58:38;;;;;;;2.95;2.22;;;27.60;46.70;;;;;;4949507;28;20027;-81
2021/06/10 11:01:08;;;;;;;3.60;2.55;;;27.70;46.60;;;;;;4941278;28;20537;-82
2021/06/10 11:03:44;;;;;;;2.97;2.30;;;27.70;46.30;;;;;;4964942;28;20549;-82
2021/06/10 11:06:22;;;;;;;2.67;2.17;;;27.80;46.30;;;;;;4973103;28;20702;-81
2021/06/10 11:09:13;;;;;;;3.65;1.95;;;27.80;46.00;;;;;;4989362;28;20117;-82
2021/06/10 11:11:59;;;;;;;2.58;2.00;;;27.90;45.80;;;;;;4965785;28;20110;-81
2021/06/10 11:14:39;;;;;;;3.22;2.40;;;28.00;45.70;;;;;;4981979;28;20027;-82
2021/06/10 11:17:29;;;;;;;2.85;2.47;;;28.00;45.40;;;;;;4965895;28;20038;-82
2021/06/10 11:20:14;;;;;;;3.85;2.42;;;28.00;45.30;;;;;;4967772;28;20042;-81
2021/06/10 11:22:44;;;;;;;3.30;2.33;;;28.00;45.10;;;;;;4971214;28;20395;-81
2021/06/10 11:25:34;;;;;;;2.67;2.13;;;28.10;45.20;;;;;;4965383;28;20114;-82
2021/06/10 11:28:12;;;;;;;3.00;2.33;;;28.10;45.20;;;;;;4972643;28;20403;-82
2021/06/10 11:30:39;;;;;;;3.40;2.42;;;28.10;45.00;;;;;;4956140;28;20471;-81
2021/06/10 11:33:17;;;;;;;4.07;2.55;;;28.10;45.00;;;;;;4973617;28;20487;-81
2021/06/10 11:35:57;;;;;;;3.00;2.47;;;28.20;45.10;;;;;;4968081;28;20031;-83
2021/06/10 11:38:27;;;;;;;2.80;2.22;;;28.20;45.10;;;;;;4940185;28;20102;-81
2021/06/10 11:40:53;;;;;;;2.88;2.25;;;28.20;45.00;;;;;;4972531;28;20034;-82
2021/06/10 11:43:21;;;;;;;3.88;2.75;;;28.20;44.90;;;;;;4971884;28;20035;-81
2021/06/10 11:45:48;;;;;;;3.25;2.40;;;28.20;45.00;;;;;;4973580;28;20436;-81
2021/06/10 11:48:14;;;;;;;3.13;2.38;;;28.20;44.70;;;;;;4971889;28;20112;-82
2021/06/10 11:50:44;;;;;;;2.78;2.35;;;28.20;44.50;;;;;;4971669;28;20051;-82
2021/06/10 11:53:18;;;;;;;3.38;1.98;;;28.20;44.40;;;;;;4972435;28;20050;-82
2021/06/10 11:55:45;;;;;;;2.70;1.98;;;28.20;44.30;;;;;;4957202;28;20109;-82
2021/06/10 11:58:13;;;;;;;2.70;2.05;;;28.20;44.20;;;;;;4972759;28;20061;-83
2021/06/10 12:00:46;;;;;;;2.45;2.00;;;28.20;44.00;;;;;;4972225;28;20476;-83
2021/06/10 12:03:15;;;;;;;3.03;1.90;;;28.20;44.10;;;;;;4977787;28;20035;-82
2021/06/10 12:05:59;;;;;;;3.30;2.20;;;28.30;44.10;;;;;;4958159;28;20045;-82
2021/06/10 12:08:26;;;;;;;4.03;2.13;;;28.30;43.90;;;;;;4937857;28;20031;-84
2021/06/10 12:10:56;;;;;;;3.20;1.92;;;28.30;43.60;;;;;;4955535;28;20628;-83
2021/06/10 12:13:34;;;;;;;3.22;2.22;;;28.30;43.60;;;;;;4955980;28;20050;-81
2021/06/10 12:16:19;;;;;;;2.70;1.88;;;28.30;43.40;;;;;;4971287;28;20093;-83
2021/06/10 12:18:47;;;;;;;2.70;1.80;;;28.20;43.50;;;;;;4963977;28;20045;-83
2021/06/10 12:21:27;;;;;;;2.63;1.95;;;28.30;43.40;;;;;;4988234;28;20031;-83
2021/06/10 12:23:59;;;;;;;1.92;1.52;;;28.30;43.10;;;;;;4972537;28;20059;-83
2021/06/10 12:26:27;;;;;;;2.25;1.60;;;28.30;42.70;;;;;;4985468;28;20687;-83
2021/06/10 12:29:00;;;;;;;2.40;1.80;;;28.30;42.50;;;;;;4972199;28;20081;-81
2021/06/10 12:31:27;;;;;;;2.42;1.63;;;28.20;42.20;;;;;;4988118;28;20211;-81
2021/06/10 12:33:58;;;;;;;2.20;1.67;;;28.20;42.20;;;;;;4971853;28;20027;-83
2021/06/10 12:36:37;;;;;;;2.88;1.95;;;28.20;42.00;;;;;;4972021;28;20110;-82
2021/06/10 12:39:07;;;;;;;2.63;1.42;;;28.30;41.60;;;;;;4972162;28;20046;-81
2021/06/10 12:41:35;;;;;;;2.22;1.17;;;28.20;41.00;;;;;;4971298;28;20035;-81
2021/06/10 12:44:27;;;;;;;1.80;1.35;;;28.30;41.10;;;;;;4939544;28;20037;-81
2021/06/10 12:46:58;;;;;;;1.88;1.20;;;28.20;40.90;;;;;;4951355;28;20046;-80
2021/06/10 12:49:42;;;;;;;1.67;1.25;;;28.20;40.80;;;;;;4937205;28;20134;-79
2021/06/10 12:52:14;;;;;;;1.60;1.23;;;28.20;40.90;;;;;;4967934;28;20034;-84
2021/06/10 12:54:42;;;;;;;1.98;1.27;;;28.20;40.70;;;;;;4979946;28;20846;-80
2021/06/10 12:57:29;;;;;;;2.35;1.48;;;28.30;40.90;;;;;;4958477;28;20035;-80